Time;durP1;ratioP1;P1;durP2;ratioP2;P2;SDS_P1;SDS_P2;PMS_P1;PMS_P2;Temp;Humidity;BMP_temperature;BMP_pressure;BME280_temperature;BME280_humidity;BME280_pressure;Samples;Min_cycle;Max_cycle;Signal;HPM_P1;HPM_P2
2022/04/21 00:00:40;;;;;;;;;7.00;7.00;;;;;16.73;30.29;100233.13;5068306;27;45402;-61
2022/04/21 00:03:05;;;;;;;;;8.00;7.33;;;;;16.73;30.45;100229.63;5064915;28;45458;-61
2022/04/21 00:05:32;;;;;;;;;8.33;8.33;;;;;16.73;29.92;100232.28;5075755;28;45632;-61
2022/04/21 00:07:58;;;;;;;;;7.00;7.00;;;;;16.72;30.15;100228.78;5068544;27;45970;-58
2022/04/21 00:10:24;;;;;;;;;7.00;7.00;;;;;16.71;30.42;100226.22;5056497;28;45397;-59
2022/04/21 00:12:50;;;;;;;;;6.67;6.67;;;;;16.68;30.16;100219.31;5059375;28;45553;-61
2022/04/21 00:15:16;;;;;;;;;8.67;8.00;;;;;16.71;29.37;100219.13;5071509;27;45559;-61
2022/04/21 00:17:42;;;;;;;;;6.67;6.00;;;;;16.70;29.38;100216.56;5057627;28;46015;-61
2022/04/21 00:20:08;;;;;;;;;7.00;7.00;;;;;16.68;29.75;100216.66;5067291;28;45397;-61
2022/04/21 00:25:18;;;;;;;;;7.00;7.00;;;;;16.65;30.04;100211.53;5069926;28;45380;-61
2022/04/21 00:27:45;;;;;;;;;7.00;7.00;;;;;16.67;29.57;100211.47;5065431;28;45448;-59
2022/04/21 00:30:11;;;;;;;;;7.33;6.33;;;;;16.62;29.66;100200.28;5071644;27;45469;-60
2022/04/21 00:32:39;;;;;;;;;9.00;8.00;;;;;16.64;29.69;100209.84;5064566;28;45502;-59
2022/04/21 00:35:06;;;;;;;;;6.67;6.33;;;;;16.62;30.18;100209.09;5076556;27;45381;-60
2022/04/21 00:37:32;;;;;;;;;7.67;7.67;;;;;16.56;30.17;100199.75;5065530;27;46480;-60
2022/04/21 00:39:57;;;;;;;;;6.33;6.33;;;;;16.60;30.24;100205.69;5076544;27;45414;-60
2022/04/21 00:42:23;;;;;;;;;5.33;5.33;;;;;16.54;29.64;100193.69;5060864;27;45750;-60
2022/04/21 00:44:51;;;;;;;;;7.33;7.00;;;;;16.55;29.34;100192.75;5057557;28;45375;-60
2022/04/21 00:47:18;;;;;;;;;6.67;6.67;;;;;16.53;30.12;100193.78;5059874;28;46553;-60
2022/04/21 00:49:47;;;;;;;;;6.00;6.00;;;;;16.52;29.91;100192.06;5075429;27;45504;-60
2022/04/21 00:52:15;;;;;;;;;8.00;7.67;;;;;16.51;29.61;100190.38;5062775;27;45520;-60
2022/04/21 00:54:40;;;;;;;;;9.67;8.00;;;;;16.50;29.36;100194.00;5073337;28;45500;-60
2022/04/21 00:57:06;;;;;;;;;7.00;7.00;;;;;16.49;30.04;100186.97;5070640;27;45485;-59
2022/04/21 00:59:33;;;;;;;;;7.00;7.00;;;;;16.44;29.71;100184.66;5062865;28;45470;-62
2022/04/21 01:04:45;;;;;;;;;9.33;7.67;;;;;16.44;29.71;100182.00;5056094;28;45351;-60
2022/04/21 01:07:11;;;;;;;;;7.00;7.00;;;;;16.44;29.39;100181.13;5054628;28;46071;-60
2022/04/21 01:09:38;;;;;;;;;8.67;8.67;;;;;16.42;30.06;100169.78;5056250;28;45409;-60
2022/04/21 01:12:11;;;;;;;;;10.00;8.00;;;;;16.35;29.64;100170.16;5067507;27;45431;-60
2022/04/21 01:14:37;;;;;;;;;8.00;7.67;;;;;16.37;30.03;100175.38;5096439;27;45459;-60
2022/04/21 01:17:04;;;;;;;;;18.00;16.33;;;;;16.35;29.89;100169.31;5073762;27;46152;-60
2022/04/21 01:19:29;;;;;;;;;7.33;7.00;;;;;16.35;29.68;100169.31;5065948;27;45573;-61
2022/04/21 01:21:55;;;;;;;;;10.00;8.33;;;;;16.31;29.71;100163.38;5059358;28;45524;-60
2022/04/21 01:24:20;;;;;;;;;6.00;6.00;;;;;16.29;30.28;100157.31;5068478;27;45438;-61
2022/04/21 01:26:46;;;;;;;;;7.00;7.00;;;;;16.30;29.79;100168.75;5066077;28;45430;-61
2022/04/21 01:29:12;;;;;;;;;10.00;9.00;;;;;16.26;29.22;100161.97;5070228;28;45514;-61
2022/04/21 01:31:38;;;;;;;;;8.00;8.00;;;;;16.22;29.39;100152.50;5074265;28;45362;-61
2022/04/21 01:34:04;;;;;;;;;9.67;8.00;;;;;16.30;30.00;100169.59;5074228;28;45485;-59
2022/04/21 01:36:29;;;;;;;;;9.67;9.67;;;;;16.30;29.78;100174.06;5062082;28;45441;-58
2022/04/21 01:41:38;;;;;;;;;8.00;8.00;;;;;16.27;30.86;100167.16;5056704;28;45528;-59
2022/04/21 01:44:04;;;;;;;;;8.00;8.00;;;;;16.23;29.10;100159.53;5060926;28;45640;-60
2022/04/21 01:46:29;;;;;;;;;10.00;10.00;;;;;16.26;30.36;100162.81;5066117;28;46130;-59
2022/04/21 01:48:54;;;;;;;;;9.67;9.00;;;;;16.27;30.62;100155.72;5055174;28;45438;-59
2022/04/21 01:51:20;;;;;;;;;10.67;8.67;;;;;16.20;31.04;100149.97;5055235;28;45394;-60
2022/04/21 01:53:45;;;;;;;;;8.00;8.00;;;;;16.21;30.28;100156.97;5055443;28;45505;-59
2022/04/21 01:56:11;;;;;;;;;8.00;8.00;;;;;16.21;30.27;100153.47;5055006;28;45429;-61
2022/04/21 01:58:36;;;;;;;;;12.67;12.00;;;;;16.19;29.28;100148.25;5055641;28;45344;-60
2022/04/21 02:01:02;;;;;;;;;9.00;9.00;;;;;16.15;30.37;100143.22;5055111;28;45494;-59
2022/04/21 02:03:28;;;;;;;;;11.67;9.00;;;;;16.16;30.88;100152.91;5055280;28;45388;-63
2022/04/21 02:05:53;;;;;;;;;9.33;8.00;;;;;16.17;30.04;100154.59;5055014;28;46185;-60
2022/04/21 02:08:19;;;;;;;;;9.33;9.33;;;;;16.16;30.56;100142.31;5055433;28;45373;-60
2022/04/21 02:10:44;;;;;;;;;8.00;8.00;;;;;16.10;31.05;100144.41;5056033;28;45350;-60
2022/04/21 02:13:10;;;;;;;;;12.00;11.00;;;;;16.11;30.90;100137.28;5055053;28;45588;-61
2022/04/21 02:15:35;;;;;;;;;10.00;10.00;;;;;16.10;30.31;100138.25;5054927;28;45875;-60
2022/04/21 02:18:03;;;;;;;;;8.33;8.33;;;;;16.09;30.57;100139.19;5054779;28;45526;-60
2022/04/21 02:20:29;;;;;;;;;7.00;7.00;;;;;16.03;30.07;100128.97;5054826;28;45469;-61
2022/04/21 02:22:54;;;;;;;;;8.00;6.67;;;;;16.03;31.13;100135.13;5054873;28;45426;-59
2022/04/21 02:25:20;;;;;;;;;6.67;6.00;;;;;16.01;30.04;100121.16;5073664;28;45488;-59
2022/04/21 02:27:47;;;;;;;;;8.00;8.00;;;;;16.05;30.92;100130.59;5073234;28;45419;-60
2022/04/21 02:30:16;;;;;;;;;8.00;8.00;;;;;16.02;30.27;100117.53;5069351;28;45438;-59
2022/04/21 02:32:41;;;;;;;;;10.00;9.00;;;;;16.03;30.99;100119.22;5077884;27;45350;-60
2022/04/21 02:35:08;;;;;;;;;9.00;8.00;;;;;16.02;30.73;100120.19;5095326;27;46329;-60
2022/04/21 02:37:44;;;;;;;;;8.67;8.33;;;;;15.99;31.23;100115.09;5076234;27;45532;-61
2022/04/21 02:40:10;;;;;;;;;9.00;9.00;;;;;15.96;30.18;100109.09;5075048;27;45500;-60
2022/04/21 02:42:38;;;;;;;;;11.00;9.33;;;;;15.94;29.91;100106.56;5075040;27;45504;-61
2022/04/21 02:45:11;;;;;;;;;9.33;8.33;;;;;15.93;30.16;100112.81;5075048;27;45389;-60
2022/04/21 02:47:38;;;;;;;;;8.00;7.33;;;;;15.92;30.06;100107.63;5076178;27;45551;-59
2022/04/21 02:50:04;;;;;;;;;11.67;10.00;;;;;15.87;30.94;100098.16;5095701;27;45542;-59
2022/04/21 02:52:30;;;;;;;;;9.00;9.00;;;;;15.88;30.64;100109.63;5094977;27;45560;-60
2022/04/21 02:57:43;;;;;;;;;9.00;9.00;;;;;15.86;31.04;100104.41;5063386;27;45365;-58
2022/04/21 03:00:09;;;;;;;;;8.00;8.00;;;;;15.84;31.09;100103.66;5074448;27;45358;-60
2022/04/21 03:02:34;;;;;;;;;6.33;6.33;;;;;15.84;30.80;100108.13;5071263;27;45515;-59
2022/04/21 03:05:00;;;;;;;;;8.00;8.00;;;;;15.83;30.20;100111.72;5073124;27;45549;-59
2022/04/21 03:07:25;;;;;;;;;8.33;8.33;;;;;15.81;30.56;100097.72;5074677;27;46765;-60
2022/04/21 03:09:53;;;;;;;;;9.67;9.00;;;;;15.80;30.16;100099.53;5075412;27;45972;-59
2022/04/21 03:12:18;;;;;;;;;10.33;8.33;;;;;15.66;31.14;100076.53;5078442;28;45339;-60
2022/04/21 03:14:44;;;;;;;;;9.00;9.00;;;;;15.76;31.01;100095.34;5078238;27;45398;-60
2022/04/21 03:17:10;;;;;;;;;9.33;8.00;;;;;15.74;30.85;100094.59;5077993;27;45410;-59
2022/04/21 03:19:36;;;;;;;;;10.33;9.33;;;;;15.66;30.64;100088.91;5061301;28;45422;-60
2022/04/21 03:24:47;;;;;;;;;9.00;8.00;;;;;15.48;30.95;100074.22;5057499;28;45706;-59
2022/04/21 03:27:12;;;;;;;;;9.00;9.00;;;;;15.50;30.92;100086.44;5057599;28;45695;-61
2022/04/21 03:29:38;;;;;;;;;11.00;11.00;;;;;15.43;31.34;100074.50;5058947;28;45469;-61
2022/04/21 03:32:09;;;;;;;;;8.00;8.00;;;;;15.47;31.06;100086.59;5057835;28;45556;-60
2022/04/21 03:34:42;;;;;;;;;10.33;9.67;;;;;15.41;31.72;100082.53;5057373;28;47030;-59
2022/04/21 03:37:13;;;;;;;;;11.00;9.00;;;;;15.36;31.14;100073.19;5057222;28;45426;-59
2022/04/21 03:39:39;;;;;;;;;10.33;9.00;;;;;15.38;32.20;100073.94;5056140;28;45414;-59
2022/04/21 03:42:06;;;;;;;;;9.00;9.00;;;;;15.40;31.18;100085.31;5057289;28;45422;-59
2022/04/21 03:44:31;;;;;;;;;10.00;9.00;;;;;15.42;31.28;100078.09;5058165;28;46532;-61
2022/04/21 03:46:58;;;;;;;;;11.33;10.33;;;;;15.40;32.04;100082.66;5057031;28;45458;-61
2022/04/21 03:49:25;;;;;;;;;8.00;8.00;;;;;15.40;31.42;100083.50;5058474;28;45374;-61
2022/04/21 03:51:50;;;;;;;;;9.00;9.00;;;;;15.38;30.83;100081.88;5055740;28;45658;-59
2022/04/21 03:54:15;;;;;;;;;9.67;9.67;;;;;15.37;31.57;100085.50;5057168;28;45931;-60
2022/04/21 03:56:41;;;;;;;;;12.00;9.67;;;;;15.35;31.88;100082.09;5056910;28;45400;-58
2022/04/21 03:59:06;;;;;;;;;9.33;9.33;;;;;15.32;31.47;100087.59;5057068;28;45467;-59
2022/04/21 04:01:31;;;;;;;;;8.33;8.33;;;;;15.32;31.54;100077.00;5056963;28;45351;-59
2022/04/21 04:03:58;;;;;;;;;9.67;9.00;;;;;15.33;31.34;100083.97;5055584;28;47782;-60
2022/04/21 04:11:51;;;;;;;;;9.33;9.33;;;;;15.29;31.13;100088.63;5057165;28;45384;-60
2022/04/21 04:14:16;;;;;;;;;6.00;6.00;;;;;15.32;31.36;100090.25;5056877;28;47169;-60
2022/04/21 04:16:41;;;;;;;;;12.00;11.00;;;;;15.32;30.90;100088.44;5056293;28;45392;-60
2022/04/21 04:19:10;;;;;;;;;10.33;10.33;;;;;15.19;31.78;100075.09;5056666;28;52238;-61
2022/04/21 04:21:36;;;;;;;;;8.33;8.00;;;;;15.25;31.22;100079.16;5057012;28;45525;-59
2022/04/21 04:24:02;;;;;;;;;10.00;9.67;;;;;15.24;31.30;100083.63;5057489;28;45477;-60
2022/04/21 04:26:28;;;;;;;;;8.00;8.00;;;;;15.19;31.15;100082.22;5056687;28;45395;-60
2022/04/21 04:28:53;;;;;;;;;9.33;9.00;;;;;15.18;31.57;100081.34;5066675;28;45420;-64
2022/04/21 04:31:19;;;;;;;;;10.33;9.33;;;;;15.19;31.44;100080.41;5076809;27;45533;-63
2022/04/21 04:33:44;;;;;;;;;11.33;10.33;;;;;15.21;31.52;100091.75;5076612;28;45407;-59
2022/04/21 04:36:15;;;;;;;;;9.00;9.00;;;;;15.22;32.02;100082.84;5074986;27;45472;-60
2022/04/21 04:38:41;;;;;;;;;8.00;8.00;;;;;15.23;31.17;100099.59;5071570;27;45423;-60
2022/04/21 04:43:50;;;;;;;;;10.67;9.33;;;;;15.18;31.42;100102.56;5056593;28;45685;-61
2022/04/21 04:49:00;;;;;;;;;9.00;9.00;;;;;15.17;30.68;100100.81;5057508;28;45423;-60
2022/04/21 04:51:26;;;;;;;;;9.00;9.00;;;;;15.10;31.31;100096.00;5056326;28;45515;-60
2022/04/21 04:53:53;;;;;;;;;7.67;6.00;;;;;15.13;30.53;100109.94;5057334;28;46346;-60
2022/04/21 04:56:20;;;;;;;;;9.67;9.67;;;;;15.13;31.18;100111.72;5055148;28;45491;-60
2022/04/21 04:58:46;;;;;;;;;10.67;10.67;;;;;15.08;30.83;100098.78;5056677;28;45366;-62
2022/04/21 05:01:12;;;;;;;;;12.33;9.00;;;;;15.06;31.12;100108.59;5056922;28;45511;-61
2022/04/21 05:03:39;;;;;;;;;10.67;10.67;;;;;15.04;31.36;100105.19;5054714;28;45592;-59
2022/04/21 05:06:05;;;;;;;;;10.67;10.00;;;;;14.99;30.88;100108.13;5055926;28;45579;-60
2022/04/21 05:08:30;;;;;;;;;11.00;11.00;;;;;15.01;31.18;100108.88;5054945;28;45547;-61
2022/04/21 05:10:55;;;;;;;;;12.33;11.00;;;;;15.00;31.72;100104.53;5055922;28;45613;-60
2022/04/21 05:13:21;;;;;;;;;15.00;13.00;;;;;15.00;31.83;100106.34;5055946;28;46538;-61
2022/04/21 05:15:46;;;;;;;;;12.33;12.33;;;;;14.98;31.77;100111.72;5056679;28;45551;-59
2022/04/21 05:18:12;;;;;;;;;11.67;11.00;;;;;14.97;32.36;100111.81;5055171;28;45545;-60
2022/04/21 05:20:37;;;;;;;;;10.67;10.33;;;;;14.98;31.94;100109.06;5056042;28;45446;-60
2022/04/21 05:23:05;;;;;;;;;13.33;12.00;;;;;14.93;31.58;100095.25;5055572;28;47206;-60
2022/04/21 05:25:33;;;;;;;;;12.67;11.33;;;;;15.01;32.04;100113.31;5056102;28;45478;-60
2022/04/21 05:27:59;;;;;;;;;12.67;10.67;;;;;14.99;31.79;100107.25;5057234;28;45431;-59
2022/04/21 05:33:10;;;;;;;;;9.33;9.33;;;;;15.00;32.20;100108.97;5055317;28;45791;-60
2022/04/21 05:35:36;;;;;;;;;12.00;11.67;;;;;14.98;32.08;100105.56;5055665;28;45472;-59
2022/04/21 05:38:02;;;;;;;;;10.00;10.00;;;;;14.99;31.96;100108.13;5055787;28;45484;-60
2022/04/21 05:40:27;;;;;;;;;11.67;10.00;;;;;14.97;32.17;100103.88;5065049;28;45747;-59
2022/04/21 05:42:55;;;;;;;;;11.00;11.00;;;;;14.98;32.21;100102.94;5083770;27;45493;-60
2022/04/21 05:45:21;;;;;;;;;9.00;8.67;;;;;14.98;32.36;100109.06;5096416;27;45472;-61
2022/04/21 05:47:47;;;;;;;;;14.00;11.00;;;;;14.97;32.90;100101.22;5096426;27;45343;-59
2022/04/21 05:50:13;;;;;;;;;11.00;10.33;;;;;14.94;31.84;100102.28;5096536;27;45737;-59
2022/04/21 05:52:43;;;;;;;;;9.67;9.67;;;;;14.86;32.46;100083.34;5096242;27;46071;-61
2022/04/21 05:55:09;;;;;;;;;12.00;12.00;;;;;14.99;32.83;100101.97;5096128;27;45396;-59
2022/04/21 05:57:38;;;;;;;;;10.00;10.00;;;;;14.93;32.29;100089.97;5096186;27;45437;-60
2022/04/21 06:00:04;;;;;;;;;10.67;10.67;;;;;14.96;32.41;100097.75;5076386;27;45507;-59
2022/04/21 06:02:29;;;;;;;;;13.33;12.33;;;;;14.93;32.66;100091.75;5075572;28;46320;-58
2022/04/21 06:04:59;;;;;;;;;10.33;10.33;;;;;14.86;32.91;100090.47;5075733;27;45606;-58
2022/04/21 06:07:24;;;;;;;;;12.33;12.33;;;;;14.83;32.37;100091.50;5073619;27;45535;-59
2022/04/21 06:09:49;;;;;;;;;9.33;9.00;;;;;14.82;32.42;100092.41;5075717;27;45531;-58
2022/04/21 06:12:15;;;;;;;;;11.67;11.00;;;;;14.80;32.91;100087.25;5075545;27;45400;-59
2022/04/21 06:14:41;;;;;;;;;10.67;10.67;;;;;14.78;32.45;100090.91;5073798;27;45454;-59
2022/04/21 06:17:06;;;;;;;;;15.33;14.00;;;;;14.75;32.91;100083.16;5069608;27;45462;-60
2022/04/21 06:19:32;;;;;;;;;13.67;13.67;;;;;14.78;33.32;100089.13;5075626;27;45575;-59
2022/04/21 06:21:57;;;;;;;;;11.33;9.00;;;;;14.79;32.71;100093.44;5066671;27;45839;-59
2022/04/21 06:24:22;;;;;;;;;13.33;12.00;;;;;14.73;33.26;100091.19;5074999;28;45461;-59
2022/04/21 06:26:50;;;;;;;;;14.33;12.00;;;;;14.67;32.61;100088.94;5074645;28;45376;-60
2022/04/21 06:29:15;;;;;;;;;11.33;11.33;;;;;14.71;33.32;100092.22;5073469;28;45745;-59
2022/04/21 06:31:41;;;;;;;;;16.00;13.00;;;;;14.72;33.32;100097.44;5073772;28;45559;-59
2022/04/21 06:34:06;;;;;;;;;15.00;13.33;;;;;14.69;33.84;100087.00;5072772;28;46712;-58
2022/04/21 06:36:32;;;;;;;;;12.33;12.33;;;;;14.70;33.48;100090.53;5074974;28;45401;-59
2022/04/21 06:38:58;;;;;;;;;16.00;14.33;;;;;14.72;34.13;100092.16;5075076;28;45497;-59
2022/04/21 06:41:23;;;;;;;;;10.00;10.00;;;;;14.77;33.62;100094.50;5074615;28;45561;-58
2022/04/21 06:49:16;;;;;;;;;14.00;13.33;;;;;14.82;34.18;100083.63;5077410;28;45494;-59
2022/04/21 06:51:42;;;;;;;;;14.33;14.33;;;;;14.77;33.91;100074.16;5077678;28;54575;-59
2022/04/21 06:54:07;;;;;;;;;15.00;13.67;;;;;14.86;34.33;100086.00;5078189;28;45363;-59
2022/04/21 06:56:32;;;;;;;;;11.33;11.33;;;;;14.88;33.88;100084.09;5078132;28;45467;-59
2022/04/21 06:58:59;;;;;;;;;13.00;13.00;;;;;14.91;34.30;100080.41;5077964;28;45530;-58
2022/04/21 07:01:24;;;;;;;;;12.33;12.33;;;;;14.92;34.20;100082.13;5077602;28;46073;-59
2022/04/21 07:03:49;;;;;;;;;15.33;15.00;;;;;14.94;34.46;100088.19;5077897;28;45451;-58
2022/04/21 07:06:15;;;;;;;;;13.33;13.33;;;;;14.96;33.92;100070.38;5078085;28;45476;-58
2022/04/21 07:08:40;;;;;;;;;11.67;11.67;;;;;14.98;33.55;100079.09;5077881;28;45585;-58
2022/04/21 07:11:06;;;;;;;;;14.33;13.67;;;;;14.98;34.24;100076.44;5077695;28;45378;-58
2022/04/21 07:13:32;;;;;;;;;16.33;15.00;;;;;14.88;34.12;100059.41;5077815;28;45482;-58
2022/04/21 07:15:57;;;;;;;;;16.67;14.67;;;;;14.98;34.77;100068.50;5078117;28;45433;-58
2022/04/21 07:18:22;;;;;;;;;14.00;14.00;;;;;15.01;34.34;100076.25;5077959;28;45590;-59
2022/04/21 07:20:48;;;;;;;;;11.00;11.00;;;;;15.02;34.11;100076.16;5077414;28;50504;-62
2022/04/21 07:23:13;;;;;;;;;12.00;12.00;;;;;15.06;35.07;100070.69;5077548;27;45442;-59
2022/04/21 07:25:39;;;;;;;;;12.67;12.33;;;;;15.00;34.04;100064.81;5077641;28;45916;-58
2022/04/21 07:28:05;;;;;;;;;15.67;15.67;;;;;15.03;34.25;100069.91;5077723;28;45610;-59
2022/04/21 07:30:30;;;;;;;;;15.00;15.00;;;;;15.10;34.08;100072.16;5077236;28;45726;-59
2022/04/21 07:32:56;;;;;;;;;14.00;13.67;;;;;15.06;34.17;100060.94;5077473;28;45441;-60
2022/04/21 07:35:22;;;;;;;;;10.00;10.00;;;;;15.10;34.06;100066.88;5077678;28;45499;-59
2022/04/21 07:37:47;;;;;;;;;17.00;15.33;;;;;15.10;35.02;100059.81;5077495;28;45482;-59
2022/04/21 07:40:12;;;;;;;;;14.00;12.00;;;;;15.13;34.67;100061.41;5077291;28;46056;-60
2022/04/21 07:42:38;;;;;;;;;14.67;13.67;;;;;15.20;34.73;100062.69;5077534;28;45311;-60
2022/04/21 07:45:04;;;;;;;;;14.00;14.00;;;;;15.21;34.33;100072.38;5077399;28;45437;-59
2022/04/21 07:47:29;;;;;;;;;17.00;16.67;;;;;15.21;34.60;100062.63;5077276;28;45612;-59
2022/04/21 07:49:56;;;;;;;;;16.67;16.00;;;;;15.17;33.76;100063.75;5077059;28;46525;-59
2022/04/21 07:55:16;;;;;;;;;12.00;12.00;;;;;15.00;34.47;100059.50;5077370;28;45457;-60
2022/04/21 07:57:42;;;;;;;;;17.67;15.67;;;;;14.95;34.54;100053.66;5076754;28;45433;-58
2022/04/21 08:00:09;;;;;;;;;13.33;13.33;;;;;15.07;35.05;100069.72;5076754;28;46231;-58
2022/04/21 08:02:36;;;;;;;;;14.00;14.00;;;;;15.03;34.94;100053.19;5076811;28;45458;-59
2022/04/21 08:05:02;;;;;;;;;14.33;14.33;;;;;15.11;34.45;100061.50;5077124;28;45346;-59
2022/04/21 08:07:27;;;;;;;;;14.33;14.33;;;;;15.12;35.37;100064.97;5076905;28;45464;-59
2022/04/21 08:09:52;;;;;;;;;18.00;18.00;;;;;15.16;35.34;100069.16;5077224;28;45493;-59
2022/04/21 08:12:18;;;;;;;;;18.33;17.00;;;;;15.16;35.02;100062.06;5076907;28;45435;-59
2022/04/21 08:14:43;;;;;;;;;17.67;14.33;;;;;15.18;34.89;100073.41;5076583;28;52142;-59
2022/04/21 08:17:09;;;;;;;;;18.00;16.33;;;;;15.21;35.31;100067.06;5076872;28;45366;-59
2022/04/21 08:19:34;;;;;;;;;21.00;18.00;;;;;15.28;34.83;100080.78;5076849;28;46088;-59
2022/04/21 08:21:59;;;;;;;;;14.00;14.00;;;;;15.30;35.19;100077.06;5076649;28;45446;-59
2022/04/21 08:32:41;;;;;;;;;14.33;14.33;;;;;15.35;34.96;100056.44;5076539;28;45446;-59
2022/04/21 08:35:07;;;;;;;;;16.00;14.33;;;;;15.42;34.81;100062.19;5076620;28;45415;-59
2022/04/21 08:37:36;;;;;;;;;13.33;13.33;;;;;15.43;34.81;100063.91;5076481;28;45417;-59
2022/04/21 08:40:03;;;;;;;;;15.00;15.00;;;;;15.45;35.00;100068.16;5076428;28;45471;-58
2022/04/21 08:42:30;;;;;;;;;13.67;9.67;;;;;15.52;35.43;100071.25;5076336;28;45463;-59
2022/04/21 08:44:58;;;;;;;;;16.00;16.00;;;;;15.50;35.24;100070.53;5076558;28;45449;-59
2022/04/21 08:47:27;;;;;;;;;17.00;16.00;;;;;15.52;35.10;100062.44;5076514;28;45434;-58
2022/04/21 08:49:57;;;;;;;;;14.00;13.67;;;;;15.55;35.08;100063.09;5076323;28;46067;-59
2022/04/21 08:52:24;;;;;;;;;20.00;20.00;;;;;15.58;35.29;100068.22;5076139;28;45730;-58
2022/04/21 08:54:49;;;;;;;;;14.00;14.00;;;;;15.58;35.33;100062.06;5076326;28;45507;-59
2022/04/21 08:57:15;;;;;;;;;18.00;15.00;;;;;15.55;35.62;100071.03;5076325;27;46085;-58
2022/04/21 08:59:40;;;;;;;;;18.67;18.67;;;;;15.53;35.23;100066.78;5075957;28;45529;-58
2022/04/21 09:02:06;;;;;;;;;14.33;14.33;;;;;15.49;34.77;100068.81;5075863;28;45450;-58
2022/04/21 09:04:31;;;;;;;;;9.33;8.33;;;;;15.57;34.37;100079.75;5076102;28;45366;-59
2022/04/21 09:07:18;;;;;;;;;16.33;15.33;;;;;15.55;34.96;100076.34;5075958;28;45633;-58
2022/04/21 09:10:06;;;;;;;;;15.00;15.00;;;;;15.56;34.98;100070.13;5074285;28;47142;-59
2022/04/21 09:12:32;;;;;;;;;19.00;16.67;;;;;15.62;34.69;100066.22;5075794;28;45473;-59
2022/04/21 09:15:04;;;;;;;;;12.67;12.33;;;;;15.65;34.55;100064.22;5076105;28;45379;-59
2022/04/21 09:17:29;;;;;;;;;16.33;15.00;;;;;15.67;35.27;100054.34;5075984;28;45339;-59
2022/04/21 09:19:59;;;;;;;;;17.33;16.00;;;;;15.78;34.27;100055.50;5075628;28;46808;-59
2022/04/21 09:22:30;;;;;;;;;14.00;14.00;;;;;15.85;34.71;100062.06;5075902;28;45461;-59
2022/04/21 09:24:58;;;;;;;;;17.00;14.00;;;;;15.86;34.65;100054.03;5075682;28;45390;-58
2022/04/21 09:27:23;;;;;;;;;14.67;14.67;;;;;15.90;35.25;100052.03;5075777;28;45520;-59
2022/04/21 09:29:49;;;;;;;;;14.67;12.00;;;;;15.96;35.29;100053.41;5075252;28;45440;-58
2022/04/21 09:32:17;;;;;;;;;14.00;14.00;;;;;15.98;34.96;100046.22;5075546;28;45521;-59
2022/04/21 09:34:49;;;;;;;;;18.00;16.00;;;;;16.08;35.15;100048.16;5074146;28;45375;-59
2022/04/21 09:37:18;;;;;;;;;13.67;13.33;;;;;16.16;34.55;100052.09;5073819;28;45501;-59
2022/04/21 09:39:50;;;;;;;;;13.33;13.33;;;;;16.21;34.76;100050.00;5075549;28;46072;-58
2022/04/21 09:42:26;;;;;;;;;12.67;12.67;;;;;16.26;35.12;100043.41;5075307;28;45495;-60
2022/04/21 09:47:36;;;;;;;;;12.67;12.67;;;;;16.33;35.12;100042.06;5075298;28;45454;-58
2022/04/21 09:50:14;;;;;;;;;13.67;12.67;;;;;16.35;34.29;100037.47;5074870;28;45508;-59
2022/04/21 09:52:49;;;;;;;;;11.67;11.00;;;;;16.41;34.94;100038.84;5075221;28;45557;-58
2022/04/21 09:55:30;;;;;;;;;14.33;14.33;;;;;16.45;34.11;100029.72;5073964;28;45394;-58
2022/04/21 09:58:07;;;;;;;;;13.00;13.00;;;;;16.49;34.09;100025.91;5075016;28;45450;-59
2022/04/21 10:00:38;;;;;;;;;10.67;9.67;;;;;16.53;34.84;100026.56;5074879;28;47308;-59
2022/04/21 10:03:05;;;;;;;;;14.67;13.67;;;;;16.59;35.04;100026.13;5075053;28;45626;-58
2022/04/21 10:05:32;;;;;;;;;18.67;18.67;;;;;16.64;34.41;100026.66;5068507;27;45520;-60
2022/04/21 10:08:02;;;;;;;;;30.00;27.00;;;;;16.65;33.46;100027.50;5088174;27;45758;-60
2022/04/21 10:10:35;;;;;;;;;20.00;18.33;;;;;16.68;33.76;100021.97;5073476;27;45452;-59
2022/04/21 10:13:02;;;;;;;;;13.67;12.33;;;;;16.71;33.54;100012.00;5073938;27;45532;-60
2022/04/21 10:15:29;;;;;;;;;14.33;14.33;;;;;16.75;33.08;100017.94;5075134;27;45449;-59
2022/04/21 10:17:55;;;;;;;;;13.67;13.67;;;;;16.73;33.34;100003.91;5074765;27;45434;-59
2022/04/21 10:20:26;;;;;;;;;17.67;14.33;;;;;16.73;32.96;100010.06;5077554;27;45457;-58
2022/04/21 10:22:54;;;;;;;;;15.00;12.67;;;;;16.76;33.20;100006.34;5078818;27;45575;-59
2022/04/21 10:25:32;;;;;;;;;16.00;14.67;;;;;16.73;33.53;99990.63;5078626;27;45525;-59
2022/04/21 10:27:57;;;;;;;;;17.00;13.00;;;;;16.83;32.39;99990.88;5078754;27;45507;-59
2022/04/21 10:30:29;;;;;;;;;9.00;9.00;;;;;16.81;32.21;99980.34;5078563;27;45397;-59
2022/04/21 10:32:56;;;;;;;;;14.33;11.67;;;;;16.88;32.50;99983.44;5077308;28;45796;-59
2022/04/21 10:35:24;;;;;;;;;15.00;15.00;;;;;16.94;32.66;99990.94;5078554;27;45530;-59
2022/04/21 10:38:14;;;;;;;;;16.00;14.33;;;;;16.95;32.31;99988.19;5078295;27;45563;-59
2022/04/21 10:41:03;;;;;;;;;11.33;11.33;;;;;16.99;31.91;99992.31;5076758;28;46250;-60
2022/04/21 10:43:47;;;;;;;;;16.67;16.67;;;;;17.02;32.47;99988.59;5078442;28;45426;-58
2022/04/21 10:46:21;;;;;;;;;15.00;15.00;;;;;16.97;32.54;99978.28;5078466;28;45486;-58
2022/04/21 10:48:47;;;;;;;;;17.33;16.33;;;;;16.98;32.42;99979.16;5078233;27;45471;-58
2022/04/21 10:57:28;;;;;;;;;14.00;14.00;;;;;16.97;32.72;99980.09;5066749;28;45425;-62
2022/04/21 11:00:03;;;;;;;;;15.00;15.00;;;;;17.02;32.51;99979.78;5066200;28;45439;-62
2022/04/21 11:02:43;;;;;;;;;16.67;16.67;;;;;17.07;32.19;99969.66;5057507;28;45985;-61
2022/04/21 11:05:37;;;;;;;;;48.75;41.25;;;;;17.13;32.02;99971.88;5071019;28;45520;-62
2022/04/21 11:08:10;;;;;;;;;32.00;29.00;;;;;17.22;31.96;99972.06;5078544;27;45560;-61
2022/04/21 11:10:38;;;;;;;;;37.50;34.25;;;;;17.29;32.08;99969.78;5078083;27;45378;-63
2022/04/21 11:13:13;;;;;;;;;57.50;45.50;;;;;17.34;31.90;99961.47;5076581;28;47113;-61
2022/04/21 11:15:44;;;;;;;;;34.67;32.33;;;;;17.37;31.79;99959.44;5077960;27;45463;-63
2022/04/21 11:18:15;;;;;;;;;49.25;40.75;;;;;17.42;31.64;99959.94;5072440;27;45469;-65
2022/04/21 11:20:42;;;;;;;;;36.25;33.75;;;;;17.44;31.88;99949.22;5096748;27;45687;-62
2022/04/21 11:23:27;;;;;;;;;21.00;21.00;;;;;17.47;32.23;99940.16;5092771;27;46364;-64
2022/04/21 11:26:04;;;;;;;;;19.33;17.33;;;;;17.55;31.61;99927.13;5073726;27;45387;-63
2022/04/21 11:28:30;;;;;;;;;17.00;16.67;;;;;17.64;30.71;99939.72;5098348;27;45433;-62
2022/04/21 11:31:01;;;;;;;;;31.67;29.33;;;;;17.59;30.80;99932.09;5086684;27;45426;-62
2022/04/21 11:33:27;;;;;;;;;19.00;19.00;;;;;17.62;29.89;99923.03;5062502;27;46764;-60
2022/04/21 11:36:06;;;;;;;;;23.33;20.67;;;;;17.61;30.52;99926.66;5057283;28;45391;-60
2022/04/21 11:38:35;;;;;;;;;25.67;23.67;;;;;17.66;30.89;99927.19;5060482;27;45404;-63
2022/04/21 11:41:03;;;;;;;;;21.00;18.67;;;;;17.70;30.62;99928.63;5077867;27;45606;-62
2022/04/21 11:43:28;;;;;;;;;11.33;10.00;;;;;17.73;30.69;99919.56;5077587;27;46001;-60
2022/04/21 11:45:56;;;;;;;;;20.33;17.67;;;;;17.84;30.25;99928.47;5077385;27;45466;-61
2022/04/21 11:48:27;;;;;;;;;18.33;17.00;;;;;17.86;29.74;99923.00;5072343;27;45424;-62
2022/04/21 11:50:53;;;;;;;;;28.67;26.33;;;;;17.90;29.52;99921.84;5056920;28;45374;-64
2022/04/21 11:53:20;;;;;;;;;17.67;15.00;;;;;17.92;29.44;99919.03;5056726;28;45663;-63
2022/04/21 11:55:49;;;;;;;;;19.67;18.67;;;;;17.95;29.00;99914.34;5056905;28;45454;-64
2022/04/21 11:58:29;;;;;;;;;15.00;15.00;;;;;18.03;29.03;99913.75;5056877;28;45412;-61
2022/04/21 12:06:37;;;;;;;;;29.33;28.00;;;;;18.29;28.11;99909.03;5058188;28;45414;-61
2022/04/21 12:09:03;;;;;;;;;10.33;10.00;;;;;18.37;28.32;99898.63;5057087;28;45426;-63
2022/04/21 12:11:28;;;;;;;;;13.67;13.67;;;;;18.49;28.70;99897.69;5057047;28;45371;-59
2022/04/21 12:13:55;;;;;;;;;15.00;14.00;;;;;18.51;27.92;99895.75;5056670;28;46222;-62
2022/04/21 12:16:53;;;;;;;;;16.00;15.00;;;;;18.63;28.10;99901.06;5056720;28;45451;-63